createdAt,value
2023-11-01T00:00:44.943Z,100390.88
2023-11-01T00:03:13.907Z,100385.72
2023-11-01T00:05:40.533Z,100380.53
2023-11-01T00:08:07.020Z,100375.94
2023-11-01T00:10:33.501Z,100365.38
2023-11-01T00:12:59.988Z,100375.38
2023-11-01T00:15:26.444Z,100370.19
2023-11-01T00:17:53.086Z,100372.06
2023-11-01T00:20:19.658Z,100369.59
2023-11-01T00:22:46.194Z,100368.78
2023-11-01T00:25:12.648Z,100367.16
2023-11-01T00:27:39.437Z,100356.31
2023-11-01T00:30:06.749Z,100351.97
2023-11-01T00:32:33.445Z,100353.03
2023-11-01T00:35:00.014Z,100341.38
2023-11-01T00:37:26.546Z,100341.38
2023-11-01T00:39:53.055Z,100335.16
2023-11-01T00:42:19.640Z,100329.75
2023-11-01T00:44:46.895Z,100326.47
2023-11-01T00:47:13.544Z,100321.88
2023-11-01T00:49:40.147Z,100328.09
2023-11-01T00:52:06.833Z,100318.59
2023-11-01T00:54:33.322Z,100324.81
2023-11-01T00:56:59.775Z,100319.41
2023-11-01T00:59:26.260Z,100308.34
2023-11-01T01:01:53.393Z,100311.03
2023-11-01T01:04:19.896Z,100316.47
2023-11-01T01:06:46.446Z,100307.28
2023-11-01T01:09:13.498Z,100296.44
2023-11-01T01:11:40.674Z,100295.63
2023-11-01T01:14:07.411Z,100301.84
2023-11-01T01:16:35.153Z,100299.41
2023-11-01T01:19:02.429Z,100299.41
2023-11-01T01:21:29.124Z,100286.44
2023-11-01T01:23:55.825Z,100300.53
2023-11-01T01:26:22.457Z,100293.00
2023-11-01T01:28:49.025Z,100293.34
2023-11-01T01:31:15.456Z,100287.13
2023-11-01T01:33:45.366Z,100291.22
2023-11-01T01:36:12.822Z,100297.44
2023-11-01T01:38:39.385Z,100292.03
2023-11-01T01:41:06.666Z,100277.44
2023-11-01T01:43:33.244Z,100295.31
2023-11-01T01:46:09.432Z,100278.25
2023-11-01T01:48:37.192Z,100268.25
2023-11-01T01:51:05.337Z,100272.59
2023-11-01T01:53:37.772Z,100265.53
2023-11-01T01:56:07.370Z,100261.19
2023-11-01T01:58:36.949Z,100254.13
2023-11-01T02:01:05.304Z,100249.78
2023-11-01T02:03:32.683Z,100250.88
2023-11-01T02:05:59.315Z,100245.44
2023-11-01T02:08:26.684Z,100242.75
2023-11-01T02:10:53.642Z,100232.97
2023-11-01T02:13:20.129Z,100223.78
2023-11-01T02:15:47.068Z,100232.97
2023-11-01T02:18:13.800Z,100227.56
2023-11-01T02:20:46.325Z,100236.50
2023-11-01T02:23:13.937Z,100226.72
2023-11-01T02:25:42.036Z,100220.47
2023-11-01T02:28:10.671Z,100225.69
2023-11-01T02:30:37.586Z,100221.31
2023-11-01T02:33:04.037Z,100214.25
2023-11-01T02:35:30.509Z,100220.47
2023-11-01T02:37:57.029Z,100211.78
2023-11-01T02:40:23.578Z,100207.19
2023-11-01T02:42:56.203Z,100204.75
2023-11-01T02:45:23.085Z,100202.84
2023-11-01T02:47:52.579Z,100203.69
2023-11-01T02:50:20.988Z,100192.28
2023-11-01T02:52:48.333Z,100196.06
2023-11-01T02:55:16.658Z,100197.13
2023-11-01T02:57:44.028Z,100197.13
2023-11-01T03:00:19.391Z,100192.53
2023-11-01T03:02:48.476Z,100186.88
2023-11-01T03:05:18.657Z,100184.16
2023-11-01T03:07:45.294Z,100179.31
2023-11-01T03:10:12.171Z,100176.34
2023-11-01T03:12:43.569Z,100175.78
2023-11-01T03:15:12.174Z,100169.31
2023-11-01T03:17:39.041Z,100177.19
2023-11-01T03:20:07.099Z,100171.75
2023-11-01T03:22:36.338Z,100168.25
2023-11-01T03:25:04.094Z,100163.91
2023-11-01T03:27:30.572Z,100159.28
2023-11-01T03:29:59.754Z,100166.34
2023-11-01T03:32:26.545Z,100164.97
2023-11-01T03:34:53.176Z,100169.06
2023-11-01T03:37:19.888Z,100166.34
2023-11-01T03:39:46.398Z,100158.22
2023-11-01T03:42:12.906Z,100154.47
2023-11-01T03:44:39.415Z,100156.34
2023-11-01T03:47:06.129Z,100146.38
2023-11-01T03:49:32.632Z,100140.94
2023-11-01T03:52:00.192Z,100140.69
2023-11-01T03:54:26.723Z,100135.84
2023-11-01T03:56:53.827Z,100137.75
2023-11-01T03:59:20.613Z,100141.53
2023-11-01T04:01:47.577Z,100127.97
2023-11-01T04:04:14.129Z,100136.66
2023-11-01T04:06:40.737Z,100121.50
2023-11-01T04:09:11.387Z,100124.22
2023-11-01T04:11:38.300Z,100122.56
2023-11-01T04:14:04.838Z,100117.16
2023-11-01T04:16:31.927Z,100114.19
2023-11-01T04:18:59.190Z,100115.00
2023-11-01T04:21:25.801Z,100111.25
2023-11-01T04:23:56.097Z,100102.03
2023-11-01T04:26:22.463Z,100109.09
2023-11-01T04:28:49.097Z,100106.63
2023-11-01T04:31:16.625Z,100099.59
2023-11-01T04:33:43.232Z,100105.25
2023-11-01T04:36:10.471Z,100102.56
2023-11-01T04:38:38.797Z,100098.22
2023-11-01T04:41:10.079Z,100104.19
2023-11-01T04:43:37.898Z,100093.38
2023-11-01T04:46:05.735Z,100082.53
2023-11-01T04:48:32.805Z,100085.81
2023-11-01T04:51:00.710Z,100084.16
2023-11-01T04:53:28.498Z,100076.63
2023-11-01T04:55:55.397Z,100082.03
2023-11-01T04:58:22.697Z,100070.38
2023-11-01T05:00:50.284Z,100078.50
2023-11-01T05:03:18.053Z,100080.41
2023-11-01T05:05:44.743Z,100072.00
2023-11-01T05:08:11.210Z,100069.06
2023-11-01T05:10:37.742Z,100066.34
2023-11-01T05:13:06.529Z,100060.44
2023-11-01T05:15:35.234Z,100058.53
2023-11-01T05:18:01.923Z,100050.16
2023-11-01T05:20:28.588Z,100056.72
2023-11-01T05:22:55.102Z,100047.53
2023-11-01T05:25:22.233Z,100039.16
2023-11-01T05:27:48.698Z,100041.63
2023-11-01T05:30:16.011Z,100042.16
2023-11-01T05:32:46.218Z,100035.44
2023-11-01T05:35:13.835Z,100031.41
2023-11-01T05:37:40.988Z,100029.28
2023-11-01T05:40:14.303Z,100024.41
2023-11-01T05:42:45.244Z,100016.03
2023-11-01T05:45:19.244Z,100019.31
2023-11-01T05:47:53.421Z,100014.44
2023-11-01T05:50:25.293Z,100018.53
2023-11-01T05:52:53.686Z,100018.03
2023-11-01T05:55:26.341Z,100017.75
2023-11-01T05:58:00.458Z,100020.81
2023-11-01T06:00:26.916Z,100019.47
2023-11-01T06:02:53.515Z,100017.31
2023-11-01T06:05:23.377Z,100014.34
2023-11-01T06:07:50.350Z,100028.47
2023-11-01T06:10:16.821Z,100030.41
2023-11-01T06:12:43.423Z,100023.69
2023-11-01T06:15:11.322Z,100021.53
2023-11-01T06:17:39.071Z,100022.63
2023-11-01T06:20:07.233Z,100019.66
2023-11-01T06:22:34.235Z,100030.81
2023-11-01T06:25:01.653Z,100021.59
2023-11-01T06:27:29.396Z,100018.41
2023-11-01T06:29:56.018Z,100021.13
2023-11-01T06:32:22.678Z,100023.56
2023-11-01T06:34:49.586Z,100026.00
2023-11-01T06:37:16.081Z,100027.38
2023-11-01T06:39:42.571Z,100031.72
2023-11-01T06:42:09.022Z,100035.81
2023-11-01T06:44:35.596Z,100026.63
2023-11-01T06:47:02.103Z,100028.25
2023-11-01T06:49:31.745Z,100035.63
2023-11-01T06:51:58.854Z,100033.47
2023-11-01T06:54:25.325Z,100035.09
2023-11-01T06:56:51.899Z,100029.16
2023-11-01T06:59:18.679Z,100027.00
2023-11-01T07:01:45.192Z,100029.47
2023-11-01T07:04:12.189Z,100037.59
2023-11-01T07:06:39.228Z,100031.91
2023-11-01T07:09:06.454Z,100036.00
2023-11-01T07:11:33.051Z,100032.22
2023-11-01T07:13:59.694Z,100040.91
2023-11-01T07:16:26.197Z,100037.13
2023-11-01T07:18:52.779Z,100034.97
2023-11-01T07:21:19.434Z,100036.59
2023-11-01T07:23:45.940Z,100034.44
2023-11-01T07:26:12.458Z,100030.66
2023-11-01T07:28:38.869Z,100028.53
2023-11-01T07:31:05.424Z,100029.34
2023-11-01T07:33:32.059Z,100020.97
2023-11-01T07:35:58.704Z,100027.78
2023-11-01T07:38:25.208Z,100027.53
2023-11-01T07:40:51.706Z,100026.19
2023-11-01T07:43:18.218Z,100018.84
2023-11-01T07:45:45.776Z,100023.75
2023-11-01T07:48:12.459Z,100019.97
2023-11-01T07:50:41.563Z,100023.50
2023-11-01T07:53:08.118Z,100022.16
2023-11-01T07:55:34.616Z,100030.84
2023-11-01T07:58:01.140Z,100033.56
2023-11-01T08:00:27.693Z,100027.91
2023-11-01T08:02:54.544Z,100035.75
2023-11-01T08:05:21.999Z,100038.22
2023-11-01T08:07:48.761Z,100025.47
2023-11-01T08:10:15.417Z,100031.44
2023-11-01T08:12:41.984Z,100027.38
2023-11-01T08:15:09.041Z,100024.41
2023-11-01T08:17:35.560Z,100024.16
2023-11-01T08:20:02.895Z,100020.09
2023-11-01T08:22:29.805Z,100020.66
2023-11-01T08:24:56.240Z,100013.91
2023-11-01T08:27:22.778Z,100006.31
2023-11-01T08:29:49.280Z,100012.03
2023-11-01T08:32:15.776Z,100010.69
2023-11-01T08:34:42.354Z,100002.25
2023-11-01T08:37:08.858Z,100015.56
2023-11-01T08:39:35.632Z,99998.22
2023-11-01T08:42:03.345Z,100005.84
2023-11-01T08:44:29.828Z,100007.47
2023-11-01T08:46:56.291Z,100004.50
2023-11-01T08:49:22.722Z,100007.75
2023-11-01T08:51:49.188Z,100009.66
2023-11-01T08:54:17.133Z,100003.16
2023-11-01T08:56:43.693Z,100007.22
2023-11-01T08:59:10.295Z,99997.47
2023-11-01T09:01:36.842Z,100002.91
2023-11-01T09:04:03.623Z,100006.44
2023-11-01T09:06:32.554Z,99999.69
2023-11-01T09:09:00.231Z,99994.78
2023-11-01T09:11:26.885Z,99995.06
2023-11-01T09:13:53.345Z,100004.06
2023-11-01T09:16:21.583Z,99996.75
2023-11-01T09:18:48.655Z,99993.25
2023-11-01T09:21:15.211Z,99988.91
2023-11-01T09:23:41.776Z,99986.22
2023-11-01T09:26:10.493Z,99980.25
2023-11-01T09:28:37.293Z,99973.72
2023-11-01T09:31:03.957Z,99972.38
2023-11-01T09:33:30.566Z,99977.03
2023-11-01T09:35:57.056Z,99973.22
2023-11-01T09:38:24.011Z,99974.84
2023-11-01T09:40:52.083Z,99971.34
2023-11-01T09:43:22.071Z,99974.88
2023-11-01T09:45:48.872Z,99961.28
2023-11-01T09:48:16.641Z,99963.78
2023-11-01T09:50:44.434Z,99967.84
2023-11-01T09:53:10.958Z,99971.09
2023-11-01T09:55:37.414Z,99969.50
2023-11-01T09:58:04.717Z,99962.44
2023-11-01T10:00:32.427Z,99957.81
2023-11-01T10:02:59.300Z,99960.53
2023-11-01T10:05:25.926Z,99956.72
2023-11-01T10:07:52.457Z,99950.19
2023-11-01T10:10:19.456Z,99944.19
2023-11-01T10:12:46.317Z,99944.16
2023-11-01T10:15:20.581Z,99941.69
2023-11-01T10:17:48.533Z,99936.22
2023-11-01T10:20:25.370Z,99933.50
2023-11-01T10:22:52.021Z,99932.41
2023-11-01T10:25:18.838Z,99927.25
2023-11-01T10:27:45.280Z,99935.13
2023-11-01T10:30:12.356Z,99925.63
2023-11-01T10:32:38.874Z,99929.16
2023-11-01T10:35:12.364Z,99934.63
2023-11-01T10:37:38.971Z,99924.25
2023-11-01T10:40:07.905Z,99924.81
2023-11-01T10:42:39.971Z,99924.28
2023-11-01T10:45:07.017Z,99924.81
2023-11-01T10:47:35.230Z,99918.84
2023-11-01T10:50:04.725Z,99908.50
2023-11-01T10:52:32.190Z,99915.03
2023-11-01T10:55:01.190Z,99907.41
2023-11-01T10:57:28.094Z,99893.84
2023-11-01T11:00:05.808Z,99897.09
2023-11-01T11:02:42.233Z,99896.56
2023-11-01T11:05:14.689Z,99883.22
2023-11-01T11:07:49.353Z,99860.06
2023-11-01T11:10:25.108Z,99865.50
2023-11-01T11:13:10.232Z,99869.81
2023-11-01T11:16:00.510Z,99861.66
2023-11-01T11:18:29.754Z,99857.00
2023-11-01T11:20:57.022Z,99849.09
2023-11-01T11:23:34.074Z,99845.56
2023-11-01T11:26:02.821Z,99843.94
2023-11-01T11:28:42.140Z,99817.56
2023-11-01T11:31:12.799Z,99833.34
2023-11-01T11:34:01.890Z,99828.47
2023-11-01T11:36:29.800Z,99824.66
2023-11-01T11:39:04.800Z,99818.38
2023-11-01T11:41:37.121Z,99820.56
2023-11-01T11:44:23.785Z,99813.22
2023-11-01T11:47:00.566Z,99813.22
2023-11-01T11:49:30.010Z,99804.75
2023-11-01T11:52:05.491Z,99802.84
2023-11-01T11:54:33.243Z,99797.91
2023-11-01T11:57:08.126Z,99792.75
2023-11-01T11:59:36.460Z,99788.13
2023-11-01T12:02:16.249Z,99787.56
2023-11-01T12:04:45.189Z,99781.81
2023-11-01T12:07:19.151Z,99780.44
2023-11-01T12:09:49.635Z,99783.69
2023-11-01T12:12:16.762Z,99776.00
2023-11-01T12:14:44.182Z,99763.09
2023-11-01T12:17:10.980Z,99758.38
2023-11-01T12:19:47.814Z,99766.59
2023-11-01T12:22:15.812Z,99762.25
2023-11-01T12:24:43.458Z,99750.25
2023-11-01T12:27:12.575Z,99744.81
2023-11-01T12:30:05.359Z,99739.94
2023-11-01T12:32:32.474Z,99740.50
2023-11-01T12:34:59.076Z,99735.06
2023-11-01T12:37:36.065Z,99733.91
2023-11-01T12:40:19.931Z,99723.41
2023-11-01T12:42:50.461Z,99708.00
2023-11-01T12:45:18.711Z,99710.56
2023-11-01T12:47:55.463Z,99703.78
2023-11-01T12:50:24.273Z,99701.94
2023-11-01T12:52:51.046Z,99708.72
2023-11-01T12:55:18.303Z,99707.31
2023-11-01T12:57:48.200Z,99695.94
2023-11-01T13:00:16.210Z,99680.94
2023-11-01T13:02:43.892Z,99678.44
2023-11-01T13:05:12.696Z,99666.44
2023-11-01T13:07:40.170Z,99659.81
2023-11-01T13:10:08.100Z,99668.50
2023-11-01T13:12:34.545Z,99655.94
2023-11-01T13:15:01.130Z,99659.00
2023-11-01T13:17:28.264Z,99647.34
2023-11-01T13:19:57.099Z,99649.59
2023-11-01T13:22:25.328Z,99650.47
2023-11-01T13:24:51.792Z,99640.38
2023-11-01T13:27:18.266Z,99639.25
2023-11-01T13:29:45.059Z,99645.53
2023-11-01T13:32:11.554Z,99640.59
2023-11-01T13:34:38.194Z,99637.63
2023-11-01T13:37:05.260Z,99625.06
2023-11-01T13:39:32.526Z,99630.53
2023-11-01T13:41:59.050Z,99631.09
2023-11-01T13:44:25.484Z,99636.34
2023-11-01T13:46:52.054Z,99629.88
2023-11-01T13:49:18.921Z,99621.75
2023-11-01T13:51:45.762Z,99615.56
2023-11-01T13:54:12.260Z,99612.88
2023-11-01T13:56:38.803Z,99609.69
2023-11-01T13:59:05.480Z,99604.31
2023-11-01T14:01:32.776Z,99599.41
2023-11-01T14:04:00.233Z,99595.94
2023-11-01T14:06:27.077Z,99590.22
2023-11-01T14:08:55.248Z,99589.19
2023-11-01T14:11:25.686Z,99586.50
2023-11-01T14:13:55.919Z,99579.19
2023-11-01T14:16:22.593Z,99563.97
2023-11-01T14:18:49.868Z,99575.44
2023-11-01T14:21:17.018Z,99562.63
2023-11-01T14:23:45.345Z,99563.22
2023-11-01T14:26:12.281Z,99566.78
2023-11-01T14:28:38.942Z,99551.81
2023-11-01T14:31:05.418Z,99561.09
2023-11-01T14:33:34.266Z,99561.16
2023-11-01T14:36:00.821Z,99556.00
2023-11-01T14:38:27.470Z,99544.84
2023-11-01T14:40:53.938Z,99552.50
2023-11-01T14:43:20.732Z,99541.06
2023-11-01T14:45:47.246Z,99529.66
2023-11-01T14:48:13.850Z,99539.22
2023-11-01T14:50:40.424Z,99530.81
2023-11-01T14:53:08.096Z,99524.31
2023-11-01T14:55:34.809Z,99529.50
2023-11-01T14:58:01.317Z,99527.66
2023-11-01T15:00:27.934Z,99531.25
2023-11-01T15:02:54.460Z,99525.59
2023-11-01T15:05:21.000Z,99519.13
2023-11-01T15:07:47.418Z,99520.25
2023-11-01T15:10:14.163Z,99517.59
2023-11-01T15:12:41.131Z,99526.31
2023-11-01T15:15:09.040Z,99530.13
2023-11-01T15:17:35.815Z,99522.50
2023-11-01T15:20:02.396Z,99516.03
2023-11-01T15:22:29.391Z,99516.06
2023-11-01T15:24:56.044Z,99528.63
2023-11-01T15:27:25.796Z,99521.09
2023-11-01T15:29:52.969Z,99507.03
2023-11-01T15:32:19.587Z,99515.78
2023-11-01T15:34:48.921Z,99518.00
2023-11-01T15:37:15.727Z,99519.66
2023-11-01T15:39:42.743Z,99512.09
2023-11-01T15:42:10.478Z,99510.19
2023-11-01T15:44:37.457Z,99515.66
2023-11-01T15:47:04.326Z,99519.19
2023-11-01T15:49:30.823Z,99516.19
2023-11-01T15:51:59.681Z,99522.44
2023-11-01T15:54:27.838Z,99514.59
2023-11-01T15:56:54.370Z,99519.75
2023-11-01T15:59:20.931Z,99514.06
2023-11-01T16:01:51.997Z,99501.84
2023-11-01T16:04:18.663Z,99502.94
2023-11-01T16:06:45.424Z,99501.59
2023-11-01T16:09:14.770Z,99496.97
2023-11-01T16:11:41.455Z,99480.44
2023-11-01T16:14:08.131Z,99476.09
2023-11-01T16:16:35.189Z,99476.38
2023-11-01T16:19:01.618Z,99484.53
2023-11-01T16:21:28.085Z,99487.22
2023-11-01T16:23:54.631Z,99491.03
2023-11-01T16:26:22.654Z,99500.78
2023-11-01T16:28:49.239Z,99493.47
2023-11-01T16:31:15.876Z,99487.22
2023-11-01T16:33:42.643Z,99488.84
2023-11-01T16:36:09.712Z,99485.06
2023-11-01T16:38:36.200Z,99482.88
2023-11-01T16:41:02.638Z,99476.63
2023-11-01T16:43:29.825Z,99482.59
2023-11-01T16:45:56.385Z,99476.09
2023-11-01T16:48:22.958Z,99474.72
2023-11-01T16:50:49.655Z,99476.34
2023-11-01T16:53:16.199Z,99485.56
2023-11-01T16:55:42.744Z,99469.84
2023-11-01T16:58:09.282Z,99466.84
2023-11-01T17:00:37.863Z,99470.66
2023-11-01T17:03:04.523Z,99479.63
2023-11-01T17:05:31.079Z,99481.75
2023-11-01T17:07:57.613Z,99473.91
2023-11-01T17:10:24.072Z,99482.31
2023-11-01T17:12:50.508Z,99483.16
2023-11-01T17:15:25.981Z,99486.69
2023-11-01T17:17:55.697Z,99494.84
2023-11-01T17:20:23.263Z,99482.88
2023-11-01T17:23:02.739Z,99489.94
2023-11-01T17:25:31.930Z,99490.50
2023-11-01T17:28:00.046Z,99486.16
2023-11-01T17:30:26.809Z,99489.69
2023-11-01T17:32:55.114Z,99489.41
2023-11-01T17:35:22.039Z,99481.25
2023-11-01T17:37:51.242Z,99475.56
2023-11-01T17:40:18.422Z,99491.00
2023-11-01T17:42:44.890Z,99486.97
2023-11-01T17:45:13.879Z,99486.69
2023-11-01T17:47:44.237Z,99491.28
2023-11-01T17:50:11.607Z,99499.16
2023-11-01T17:52:41.158Z,99497.25
2023-11-01T17:55:09.886Z,99509.19
2023-11-01T17:57:38.030Z,99496.69
2023-11-01T18:00:05.945Z,99495.63
2023-11-01T18:03:15.481Z,99504.56
2023-11-01T18:05:45.506Z,99492.66
2023-11-01T18:08:16.196Z,99490.22
2023-11-01T18:10:50.741Z,99485.31
2023-11-01T18:13:20.540Z,99482.31
2023-11-01T18:15:48.372Z,99474.75
2023-11-01T18:18:56.064Z,99469.88
2023-11-01T18:21:29.282Z,99479.34
2023-11-01T18:23:58.787Z,99470.91
2023-11-01T18:26:26.958Z,99464.41
2023-11-01T18:28:54.680Z,99466.84
2023-11-01T18:31:49.424Z,99465.78
2023-11-01T18:34:24.092Z,99481.75
2023-11-01T18:36:53.223Z,99471.47
2023-11-01T18:39:24.399Z,99470.91
2023-11-01T18:41:51.505Z,99471.47
2023-11-01T18:44:24.806Z,99471.47
2023-11-01T18:46:52.121Z,99467.09
2023-11-01T18:49:56.154Z,99465.78
2023-11-01T18:52:25.369Z,99466.56
2023-11-01T18:54:53.330Z,99462.50
2023-11-01T18:57:29.849Z,99458.41
2023-11-01T18:59:56.804Z,99460.59
2023-11-01T19:02:29.303Z,99453.28
2023-11-01T19:04:59.866Z,99457.59
2023-11-01T19:07:33.076Z,99461.13
2023-11-01T19:09:59.794Z,99466.53
2023-11-01T19:12:30.705Z,99466.53
2023-11-01T19:14:57.698Z,99459.50
2023-11-01T19:17:24.712Z,99474.13
2023-11-01T19:19:51.186Z,99466.50
2023-11-01T19:22:18.816Z,99473.53
2023-11-01T19:24:45.457Z,99472.44
2023-11-01T19:27:18.266Z,99472.97
2023-11-01T19:29:50.312Z,99472.97
2023-11-01T19:32:16.789Z,99468.88
2023-11-01T19:34:43.291Z,99467.81
2023-11-01T19:37:10.461Z,99469.97
2023-11-01T19:39:36.952Z,99468.06
2023-11-01T19:42:03.605Z,99477.25
2023-11-01T19:44:30.133Z,99475.09
2023-11-01T19:46:56.600Z,99483.22
2023-11-01T19:49:23.025Z,99487.25
2023-11-01T19:51:49.486Z,99484.81
2023-11-01T19:54:15.968Z,99476.16
2023-11-01T19:56:42.539Z,99469.66
2023-11-01T19:59:10.118Z,99476.16
2023-11-01T20:01:36.752Z,99478.28
2023-11-01T20:04:03.616Z,99475.84
2023-11-01T20:06:30.158Z,99473.69
2023-11-01T20:08:56.839Z,99473.94
2023-11-01T20:11:23.339Z,99472.59
2023-11-01T20:13:49.897Z,99459.59
2023-11-01T20:16:25.049Z,99457.16
2023-11-01T20:18:54.953Z,99461.19
2023-11-01T20:21:21.529Z,99457.59
2023-11-01T20:23:48.025Z,99458.69
2023-11-01T20:26:14.546Z,99460.84
2023-11-01T20:28:40.997Z,99451.09
2023-11-01T20:31:07.541Z,99451.09
2023-11-01T20:33:34.094Z,99453.53
2023-11-01T20:36:02.400Z,99441.06
2023-11-01T20:38:28.890Z,99437.81
2023-11-01T20:40:55.361Z,99433.75
2023-11-01T20:43:21.834Z,99433.75
2023-11-01T20:45:48.796Z,99426.16
2023-11-01T20:48:15.456Z,99431.56
2023-11-01T20:50:41.981Z,99434.53
2023-11-01T20:53:08.925Z,99430.19
2023-11-01T20:55:35.577Z,99424.19
2023-11-01T20:58:04.593Z,99422.28
2023-11-01T21:00:31.086Z,99415.25
2023-11-01T21:02:58.138Z,99413.63
2023-11-01T21:05:24.614Z,99405.78
2023-11-01T21:07:51.029Z,99403.34
2023-11-01T21:10:19.489Z,99396.84
2023-11-01T21:12:46.769Z,99390.88
2023-11-01T21:15:13.484Z,99384.91
2023-11-01T21:17:41.378Z,99379.50
2023-11-01T21:20:10.796Z,99377.06
2023-11-01T21:22:41.617Z,99373.56
2023-11-01T21:25:08.231Z,99371.38
2023-11-01T21:27:34.775Z,99369.75
2023-11-01T21:30:01.714Z,99375.69
2023-11-01T21:32:28.230Z,99369.16
2023-11-01T21:34:54.692Z,99357.00
2023-11-01T21:37:21.218Z,99365.88
2023-11-01T21:39:47.790Z,99353.47
2023-11-01T21:42:14.520Z,99351.28
2023-11-01T21:44:41.360Z,99362.34
2023-11-01T21:47:11.360Z,99353.66
2023-11-01T21:49:38.128Z,99343.13
2023-11-01T21:52:16.644Z,99344.47
2023-11-01T21:54:43.117Z,99336.63
2023-11-01T21:57:11.125Z,99338.22
2023-11-01T21:59:38.529Z,99348.47
2023-11-01T22:02:07.753Z,99346.84
2023-11-01T22:04:36.222Z,99331.16
2023-11-01T22:07:02.922Z,99330.34
2023-11-01T22:09:29.966Z,99323.56
2023-11-01T22:11:56.483Z,99322.75
2023-11-01T22:14:31.070Z,99309.25
2023-11-01T22:17:02.903Z,99302.50
2023-11-01T22:19:33.031Z,99304.38
2023-11-01T22:22:08.506Z,99292.78
2023-11-01T22:24:39.458Z,99287.91
2023-11-01T22:27:10.099Z,99273.59
2023-11-01T22:29:45.960Z,99269.53
2023-11-01T22:32:26.993Z,99267.31
2023-11-01T22:34:54.452Z,99272.16
2023-11-01T22:37:23.355Z,99271.09
2023-11-01T22:39:53.676Z,99274.88
2023-11-01T22:42:23.539Z,99273.78
2023-11-01T22:44:50.428Z,99262.97
2023-11-01T22:47:17.009Z,99266.75
2023-11-01T22:49:43.768Z,99267.00
2023-11-01T22:52:11.094Z,99249.75
2023-11-01T22:54:38.733Z,99245.16
2023-11-01T22:57:05.958Z,99239.22
2023-11-01T22:59:32.559Z,99225.72
2023-11-01T23:01:59.019Z,99222.75
2023-11-01T23:04:25.757Z,99220.56
2023-11-01T23:06:52.580Z,99226.53
2023-11-01T23:09:19.161Z,99213.84
2023-11-01T23:11:45.719Z,99210.59
2023-11-01T23:14:12.326Z,99200.88
2023-11-01T23:16:40.213Z,99200.31
2023-11-01T23:19:07.859Z,99185.19
2023-11-01T23:21:34.619Z,99180.84
2023-11-01T23:24:01.701Z,99171.94
2023-11-01T23:26:46.919Z,99163.03
2023-11-01T23:29:18.880Z,99171.13
2023-11-01T23:31:47.678Z,99159.78
2023-11-01T23:34:51.099Z,99142.50
2023-11-01T23:37:37.657Z,99142.50
2023-11-01T23:40:25.379Z,99147.09
2023-11-01T23:42:52.685Z,99140.91
2023-11-01T23:45:34.211Z,99134.41
2023-11-01T23:48:05.226Z,99125.78
2023-11-01T23:50:34.072Z,99123.63
2023-11-01T23:53:02.080Z,99114.44
2023-11-01T23:55:28.876Z,99108.50
2023-11-01T23:57:55.846Z,99093.94
